Time;durP1;ratioP1;P1;durP2;ratioP2;P2;SDS_P1;SDS_P2;PMS_P1;PMS_P2;Temp;Humidity;BMP_temperature;BMP_pressure;BME280_temperature;BME280_humidity;BME280_pressure;Samples;Min_cycle;Max_cycle;Signal;HPM_P1;HPM_P2
2023/09/21 00:00:49;;;;;;;1.08;0.80;;;24.80;50.10;;;;;;5029812;28;20321;-45
2023/09/21 00:03:15;;;;;;;1.30;0.80;;;24.80;50.10;;;;;;5027130;28;20021;-49
2023/09/21 00:05:46;;;;;;;1.42;0.88;;;24.80;50.10;;;;;;5028949;28;20064;-49
2023/09/21 00:08:12;;;;;;;2.08;1.10;;;24.80;50.10;;;;;;5028488;28;20317;-51
2023/09/21 00:10:39;;;;;;;1.23;0.90;;;24.70;50.00;;;;;;5029688;28;20383;-51
2023/09/21 00:13:05;;;;;;;1.45;1.00;;;24.80;50.00;;;;;;5030062;28;20412;-49
2023/09/21 00:15:31;;;;;;;0.80;0.80;;;24.80;50.00;;;;;;5029893;28;20025;-51
2023/09/21 00:17:58;;;;;;;1.42;0.93;;;24.70;50.00;;;;;;5010016;28;20037;-47
2023/09/21 00:20:28;;;;;;;1.23;0.88;;;24.70;50.00;;;;;;5032270;28;20022;-56
2023/09/21 00:22:55;;;;;;;1.17;0.88;;;24.70;49.90;;;;;;5010794;28;20079;-51
2023/09/21 00:25:23;;;;;;;1.45;1.00;;;24.70;49.90;;;;;;5010630;28;20107;-50
2023/09/21 00:27:49;;;;;;;1.42;0.80;;;24.70;49.90;;;;;;5029424;28;20063;-48
2023/09/21 00:30:15;;;;;;;0.90;0.80;;;24.70;49.90;;;;;;5012265;28;20064;-48
2023/09/21 00:32:42;;;;;;;1.65;0.98;;;24.70;49.90;;;;;;5008160;28;20029;-52
2023/09/21 00:35:09;;;;;;;1.85;1.13;;;24.70;49.90;;;;;;5013162;28;20309;-50
2023/09/21 00:37:39;;;;;;;1.48;0.88;;;24.70;49.90;;;;;;5008274;28;20053;-51
2023/09/21 00:40:17;;;;;;;2.08;1.10;;;24.70;49.80;;;;;;5029368;28;20022;-48
2023/09/21 00:42:44;;;;;;;1.88;1.05;;;24.70;49.80;;;;;;5029230;28;20099;-52
2023/09/21 00:45:10;;;;;;;0.98;0.70;;;24.70;49.80;;;;;;5032158;28;20045;-47
2023/09/21 00:47:45;;;;;;;0.90;0.75;;;24.70;49.80;;;;;;5011897;28;20107;-49
2023/09/21 00:50:12;;;;;;;0.68;0.60;;;24.70;49.80;;;;;;5029236;28;20022;-53
2023/09/21 00:52:44;;;;;;;0.70;0.70;;;24.70;49.80;;;;;;5009865;28;20030;-52
2023/09/21 00:55:13;;;;;;;0.90;0.68;;;24.70;49.70;;;;;;5028580;28;20138;-54
2023/09/21 00:57:45;;;;;;;0.77;0.70;;;24.70;49.70;;;;;;5028007;28;20091;-51
2023/09/21 01:00:13;;;;;;;1.48;0.80;;;24.70;49.70;;;;;;5030882;28;20167;-52
2023/09/21 01:02:42;;;;;;;0.82;0.60;;;24.70;49.70;;;;;;5030547;28;20049;-50
2023/09/21 01:05:16;;;;;;;1.83;1.08;;;24.70;49.70;;;;;;5029876;28;20159;-52
2023/09/21 01:07:42;;;;;;;0.95;0.73;;;24.70;49.70;;;;;;5035899;28;20108;-45
2023/09/21 01:10:13;;;;;;;1.40;0.80;;;24.70;49.70;;;;;;5014238;28;20024;-48
2023/09/21 01:12:43;;;;;;;1.52;0.90;;;24.70;49.70;;;;;;5032417;28;20026;-52
2023/09/21 01:15:10;;;;;;;1.33;0.90;;;24.70;49.60;;;;;;5032190;28;20033;-51
2023/09/21 01:17:39;;;;;;;0.80;0.73;;;24.70;49.60;;;;;;5030682;28;21101;-51
2023/09/21 01:20:23;;;;;;;1.10;0.80;;;24.70;49.60;;;;;;5011717;28;20041;-54
2023/09/21 01:23:22;;;;;;;0.85;0.73;;;24.70;49.60;;;;;;5031772;28;20231;-52
2023/09/21 01:25:50;;;;;;;1.13;0.82;;;24.60;49.50;;;;;;5024177;28;20401;-48
2023/09/21 01:28:27;;;;;;;0.85;0.68;;;24.70;49.50;;;;;;5013631;28;20171;-51
2023/09/21 01:30:56;;;;;;;1.85;0.82;;;24.70;49.50;;;;;;4994917;28;20053;-53
2023/09/21 01:33:24;;;;;;;1.20;0.70;;;24.60;49.50;;;;;;5029182;28;20026;-47
2023/09/21 01:35:51;;;;;;;1.60;0.90;;;24.60;49.40;;;;;;5034313;28;20080;-47
2023/09/21 01:38:17;;;;;;;1.23;0.80;;;24.70;49.40;;;;;;5032938;28;20084;-50
2023/09/21 01:40:43;;;;;;;1.15;0.90;;;24.60;49.40;;;;;;5033414;28;20026;-49
2023/09/21 01:43:11;;;;;;;1.17;0.80;;;24.70;49.40;;;;;;4996298;28;20503;-50
2023/09/21 01:45:40;;;;;;;1.00;0.68;;;24.70;49.40;;;;;;5030394;28;20032;-51
2023/09/21 01:48:09;;;;;;;1.25;0.70;;;24.60;49.30;;;;;;5027420;28;20046;-50
2023/09/21 01:50:44;;;;;;;1.20;1.08;;;24.60;49.30;;;;;;5013341;28;20435;-49
2023/09/21 01:53:12;;;;;;;1.67;1.00;;;24.60;49.30;;;;;;5029805;28;20045;-51
2023/09/21 01:55:39;;;;;;;1.40;0.95;;;24.60;49.30;;;;;;5032046;28;20021;-46
2023/09/21 01:58:06;;;;;;;1.00;0.80;;;24.60;49.30;;;;;;5024146;28;20453;-50
2023/09/21 02:00:36;;;;;;;1.27;0.90;;;24.60;49.20;;;;;;5011227;28;20029;-46
2023/09/21 02:03:04;;;;;;;1.55;0.90;;;24.60;49.20;;;;;;5029466;28;20035;-51
2023/09/21 02:05:30;;;;;;;1.15;0.70;;;24.60;49.20;;;;;;5030521;28;20075;-52
2023/09/21 02:07:56;;;;;;;1.58;0.90;;;24.60;49.20;;;;;;5030642;28;20049;-52
2023/09/21 02:10:22;;;;;;;1.48;0.90;;;24.60;49.20;;;;;;5012374;28;20026;-56
2023/09/21 02:12:59;;;;;;;0.82;0.73;;;24.60;49.20;;;;;;5029541;28;20055;-52
2023/09/21 02:15:26;;;;;;;1.80;0.90;;;24.60;49.20;;;;;;5028387;28;20220;-53
2023/09/21 02:17:56;;;;;;;1.00;0.70;;;24.60;49.20;;;;;;5016634;28;20029;-46
2023/09/21 02:20:23;;;;;;;1.10;0.93;;;24.60;49.20;;;;;;5030746;28;20526;-50
2023/09/21 02:22:57;;;;;;;1.98;0.80;;;24.60;49.20;;;;;;5027191;28;20060;-54
2023/09/21 02:25:24;;;;;;;1.90;1.00;;;24.60;49.20;;;;;;5032351;28;20033;-51
2023/09/21 02:27:50;;;;;;;1.00;0.80;;;24.60;49.20;;;;;;5030276;28;20510;-52
2023/09/21 02:30:23;;;;;;;1.38;0.80;;;24.60;49.20;;;;;;5012871;28;20034;-48
2023/09/21 02:32:51;;;;;;;1.70;0.73;;;24.60;49.20;;;;;;5017503;28;20056;-53
2023/09/21 02:35:27;;;;;;;0.93;0.82;;;24.60;49.20;;;;;;5030580;28;20481;-49
2023/09/21 02:37:54;;;;;;;1.00;0.80;;;24.60;49.20;;;;;;5028619;28;20136;-47
2023/09/21 02:40:22;;;;;;;1.00;0.80;;;24.60;49.20;;;;;;5004702;28;20091;-52
2023/09/21 02:42:56;;;;;;;2.10;0.80;;;24.60;49.20;;;;;;5027482;28;20033;-52
2023/09/21 02:45:24;;;;;;;1.40;0.90;;;24.60;49.10;;;;;;4991931;28;20475;-50
2023/09/21 02:47:54;;;;;;;1.90;0.90;;;24.60;49.10;;;;;;4954820;28;1217528;-48
2023/09/21 02:50:31;;;;;;;1.00;0.85;;;24.60;49.10;;;;;;5029563;28;20108;-49
2023/09/21 02:53:05;;;;;;;1.17;0.98;;;24.60;49.10;;;;;;5029329;28;20049;-55
2023/09/21 02:55:33;;;;;;;1.95;0.90;;;24.60;49.10;;;;;;5003011;28;20032;-52
2023/09/21 02:58:10;;;;;;;1.33;0.77;;;24.60;49.10;;;;;;5024736;28;20198;-52
2023/09/21 03:00:42;;;;;;;1.30;1.00;;;24.60;49.10;;;;;;5028140;28;20116;-53
2023/09/21 03:03:12;;;;;;;1.00;0.65;;;24.60;49.10;;;;;;5010096;28;20025;-49
2023/09/21 03:05:40;;;;;;;1.23;0.75;;;24.50;49.00;;;;;;5014364;28;20461;-52
2023/09/21 03:08:16;;;;;;;1.98;0.95;;;24.50;49.00;;;;;;5030896;28;20034;-47
2023/09/21 03:10:49;;;;;;;1.15;0.73;;;24.60;49.10;;;;;;5020488;28;20021;-50
2023/09/21 03:13:18;;;;;;;1.25;0.70;;;24.50;49.00;;;;;;5009443;28;20120;-51
2023/09/21 03:15:50;;;;;;;0.70;0.60;;;24.50;49.00;;;;;;5016230;28;20063;-51
2023/09/21 03:18:18;;;;;;;1.55;0.80;;;24.50;49.00;;;;;;5015705;28;20159;-47
2023/09/21 03:20:45;;;;;;;1.58;0.75;;;24.50;49.00;;;;;;5012778;28;20464;-49
2023/09/21 03:23:13;;;;;;;1.00;0.80;;;24.50;49.00;;;;;;5030647;28;20044;-51
2023/09/21 03:25:41;;;;;;;1.58;0.70;;;24.60;49.00;;;;;;5010973;28;20025;-50
2023/09/21 03:28:15;;;;;;;1.42;0.80;;;24.50;49.00;;;;;;5031663;28;20057;-53
2023/09/21 03:30:49;;;;;;;1.08;0.80;;;24.50;49.60;;;;;;5012377;28;20093;-54
2023/09/21 03:33:16;;;;;;;0.57;0.57;;;24.50;48.90;;;;;;5031523;28;20036;-46
2023/09/21 03:35:42;;;;;;;0.93;0.80;;;24.50;48.90;;;;;;4995608;28;20113;-51
2023/09/21 03:38:12;;;;;;;3.03;0.70;;;24.50;48.90;;;;;;5031007;28;20021;-52
2023/09/21 03:40:38;;;;;;;1.08;0.80;;;24.50;48.90;;;;;;5027501;28;20108;-55
2023/09/21 03:43:06;;;;;;;1.13;0.80;;;24.50;48.90;;;;;;5030137;28;20038;-51
2023/09/21 03:45:33;;;;;;;1.40;0.88;;;24.50;48.90;;;;;;5018878;28;20051;-54
2023/09/21 03:48:05;;;;;;;1.65;0.75;;;24.50;48.80;;;;;;5020096;28;20045;-53
2023/09/21 03:50:31;;;;;;;1.38;1.00;;;24.50;48.80;;;;;;5012533;28;20048;-52
2023/09/21 03:53:04;;;;;;;1.00;0.90;;;24.50;48.90;;;;;;5011198;28;20412;-51
2023/09/21 03:55:31;;;;;;;1.58;0.93;;;24.50;48.80;;;;;;5031731;28;20150;-55
2023/09/21 03:57:57;;;;;;;1.42;0.70;;;24.60;48.90;;;;;;5028864;28;20095;-47
2023/09/21 04:00:36;;;;;;;0.93;0.80;;;24.50;48.80;;;;;;5010885;28;20025;-46
2023/09/21 04:03:11;;;;;;;1.50;0.82;;;24.50;48.80;;;;;;5027193;28;20049;-55
2023/09/21 04:06:06;;;;;;;1.23;0.88;;;24.50;48.80;;;;;;5009548;28;20142;-52
2023/09/21 04:08:32;;;;;;;1.75;1.08;;;24.50;48.80;;;;;;5009247;28;20045;-55
2023/09/21 04:11:00;;;;;;;1.00;0.70;;;24.50;48.80;;;;;;5028409;28;20539;-51
2023/09/21 04:13:27;;;;;;;1.52;0.82;;;24.50;48.80;;;;;;5012121;28;20436;-50
2023/09/21 04:15:53;;;;;;;2.45;1.00;;;24.50;48.80;;;;;;5028379;28;20022;-50
2023/09/21 04:18:19;;;;;;;2.35;1.00;;;24.50;48.80;;;;;;4994848;28;20321;-53
2023/09/21 04:20:45;;;;;;;1.67;0.95;;;24.50;48.80;;;;;;4996931;28;20052;-53
2023/09/21 04:23:11;;;;;;;1.52;1.00;;;24.50;48.80;;;;;;5013763;28;20113;-55
2023/09/21 04:25:38;;;;;;;2.70;0.95;;;24.50;48.80;;;;;;5009131;28;20297;-55
2023/09/21 04:28:05;;;;;;;1.10;0.80;;;24.50;48.80;;;;;;5031223;28;20421;-51
2023/09/21 04:30:34;;;;;;;1.95;0.90;;;24.50;48.90;;;;;;5012452;28;20043;-50
2023/09/21 04:33:00;;;;;;;1.20;0.88;;;24.50;48.90;;;;;;5031313;28;20465;-53
2023/09/21 04:35:27;;;;;;;1.88;1.00;;;24.50;48.80;;;;;;5009244;28;20404;-54
2023/09/21 04:37:56;;;;;;;1.20;1.00;;;24.50;48.90;;;;;;5029809;28;20021;-52
2023/09/21 04:40:24;;;;;;;1.23;0.75;;;24.50;48.80;;;;;;5030469;28;20030;-54
2023/09/21 04:42:50;;;;;;;1.23;0.90;;;24.50;48.80;;;;;;5011275;28;20044;-52
2023/09/21 04:45:21;;;;;;;0.85;0.75;;;24.50;48.90;;;;;;5024697;28;20029;-53
2023/09/21 04:47:52;;;;;;;1.85;0.90;;;24.50;48.90;;;;;;5013579;28;20172;-47
2023/09/21 04:50:18;;;;;;;1.20;1.00;;;24.50;48.90;;;;;;5007061;28;20433;-48
2023/09/21 04:52:48;;;;;;;1.58;0.93;;;24.50;48.90;;;;;;5010630;28;20368;-48
2023/09/21 04:55:18;;;;;;;1.48;1.05;;;24.50;48.90;;;;;;5013327;28;20035;-50
2023/09/21 04:57:45;;;;;;;1.27;0.80;;;24.50;48.90;;;;;;5012532;28;20057;-49
2023/09/21 05:00:13;;;;;;;1.35;0.90;;;24.50;49.00;;;;;;5010999;28;20116;-51
2023/09/21 05:02:40;;;;;;;2.47;0.90;;;24.50;49.00;;;;;;5011324;28;20040;-50
2023/09/21 05:05:07;;;;;;;1.85;0.90;;;24.50;49.00;;;;;;5016250;28;20138;-55
2023/09/21 05:07:35;;;;;;;1.00;0.90;;;24.50;49.00;;;;;;5031797;28;20033;-47
2023/09/21 05:10:07;;;;;;;1.92;1.10;;;24.50;49.00;;;;;;5007733;28;20107;-51
2023/09/21 05:12:34;;;;;;;1.13;0.93;;;24.50;49.10;;;;;;5010401;28;20364;-50
2023/09/21 05:15:00;;;;;;;1.27;0.98;;;24.50;49.10;;;;;;5028180;28;20127;-46
2023/09/21 05:17:26;;;;;;;1.02;0.73;;;24.50;49.10;;;;;;5027130;28;20099;-45
2023/09/21 05:19:52;;;;;;;1.20;0.80;;;24.40;49.00;;;;;;5030000;28;20391;-51
2023/09/21 05:22:17;;;;;;;1.45;1.00;;;24.50;49.20;;;;;;5030575;28;20021;-50
2023/09/21 05:24:43;;;;;;;1.50;0.80;;;24.40;49.10;;;;;;5010529;28;20110;-51
2023/09/21 05:27:11;;;;;;;1.45;1.00;;;24.50;49.20;;;;;;5022444;28;21957;-48
2023/09/21 05:29:37;;;;;;;1.05;0.70;;;24.50;49.30;;;;;;5031662;28;20028;-57
2023/09/21 05:32:05;;;;;;;1.33;0.93;;;24.50;49.30;;;;;;5016225;28;20024;-49
2023/09/21 05:34:32;;;;;;;1.30;0.70;;;24.40;49.30;;;;;;5017905;28;20293;-56
2023/09/21 05:36:58;;;;;;;1.30;1.05;;;24.40;49.30;;;;;;5024894;28;20152;-49
2023/09/21 05:39:24;;;;;;;1.73;0.98;;;24.40;49.40;;;;;;5041342;28;20025;-53
2023/09/21 05:41:51;;;;;;;1.63;0.88;;;24.40;49.40;;;;;;5042546;28;20079;-53
2023/09/21 05:44:21;;;;;;;1.85;0.90;;;24.40;49.40;;;;;;5044126;28;20095;-54
2023/09/21 05:46:51;;;;;;;1.50;1.08;;;24.50;49.50;;;;;;5039005;28;20017;-50
2023/09/21 05:49:22;;;;;;;1.98;1.10;;;24.50;49.50;;;;;;5047934;28;20424;-51
2023/09/21 05:51:52;;;;;;;2.25;1.10;;;24.50;49.50;;;;;;5045327;28;20033;-55
2023/09/21 05:54:26;;;;;;;1.23;0.90;;;24.40;49.40;;;;;;5039635;28;20114;-51
2023/09/21 05:56:53;;;;;;;2.20;1.05;;;24.50;49.50;;;;;;5038895;28;20136;-51
2023/09/21 05:59:19;;;;;;;2.30;1.20;;;24.40;49.40;;;;;;5020356;28;20108;-53
2023/09/21 06:01:46;;;;;;;2.60;1.30;;;24.50;49.50;;;;;;5044127;28;20312;-47
2023/09/21 06:04:12;;;;;;;2.53;1.20;;;24.50;49.50;;;;;;5045382;28;20021;-54
2023/09/21 06:06:41;;;;;;;1.80;1.10;;;24.50;49.50;;;;;;5024655;28;20223;-49
2023/09/21 06:09:08;;;;;;;1.33;1.00;;;24.50;49.50;;;;;;5020796;28;20104;-50
2023/09/21 06:11:34;;;;;;;1.40;1.10;;;24.50;49.50;;;;;;5043761;28;20211;-55
2023/09/21 06:14:01;;;;;;;2.55;1.02;;;24.40;49.50;;;;;;5024627;28;20037;-50
2023/09/21 06:16:29;;;;;;;2.13;0.93;;;24.50;49.60;;;;;;5038385;28;20444;-51
2023/09/21 06:18:55;;;;;;;3.42;1.80;;;24.50;49.60;;;;;;5030646;28;20205;-51
2023/09/21 06:21:21;;;;;;;5.60;2.38;;;24.50;49.60;;;;;;5039864;28;20029;-55
2023/09/21 06:23:49;;;;;;;5.03;1.80;;;24.50;49.60;;;;;;5042473;28;20034;-47
2023/09/21 06:26:15;;;;;;;3.78;1.75;;;24.50;49.70;;;;;;5026413;28;20032;-49
2023/09/21 06:28:43;;;;;;;4.65;2.28;;;24.50;49.70;;;;;;5036518;28;20390;-51
2023/09/21 06:31:13;;;;;;;5.85;2.08;;;24.50;49.70;;;;;;5043863;28;20313;-45
2023/09/21 06:33:39;;;;;;;5.25;2.13;;;24.50;49.70;;;;;;5037663;28;20025;-50
2023/09/21 06:36:08;;;;;;;2.63;1.60;;;24.50;49.80;;;;;;5029155;28;20039;-54
2023/09/21 06:38:34;;;;;;;2.20;1.60;;;24.50;49.90;;;;;;5023340;28;20029;-50
2023/09/21 06:41:01;;;;;;;2.97;1.73;;;24.50;49.90;;;;;;5038872;28;20487;-50
2023/09/21 06:43:30;;;;;;;2.80;1.35;;;24.50;49.90;;;;;;5032573;28;20044;-53
2023/09/21 06:45:56;;;;;;;3.28;1.58;;;24.50;49.90;;;;;;5032400;28;20071;-50
2023/09/21 06:48:22;;;;;;;3.90;1.63;;;24.50;50.00;;;;;;5035934;28;20405;-50
2023/09/21 06:50:48;;;;;;;4.18;1.55;;;24.50;50.00;;;;;;5049459;28;20405;-53
2023/09/21 06:53:14;;;;;;;3.80;1.60;;;24.50;50.00;;;;;;5051648;28;20108;-49
2023/09/21 06:55:40;;;;;;;3.42;1.70;;;24.50;50.10;;;;;;5013686;28;20043;-55
2023/09/21 06:58:08;;;;;;;3.95;1.50;;;24.50;50.10;;;;;;5031965;28;20113;-56
2023/09/21 07:00:37;;;;;;;3.22;1.77;;;24.50;50.20;;;;;;5036119;28;20043;-49
2023/09/21 07:03:03;;;;;;;3.25;1.63;;;24.50;50.20;;;;;;5043755;28;22160;-53
2023/09/21 07:05:29;;;;;;;2.33;1.50;;;24.50;50.30;;;;;;5041718;28;20027;-55
2023/09/21 07:07:55;;;;;;;2.97;1.77;;;24.50;50.30;;;;;;5037970;28;20041;-52
2023/09/21 07:10:20;;;;;;;3.53;1.60;;;24.50;50.40;;;;;;5038873;28;20029;-51
2023/09/21 07:12:46;;;;;;;3.83;1.60;;;24.50;50.40;;;;;;5042912;28;20476;-51
2023/09/21 07:15:12;;;;;;;3.33;1.70;;;24.50;50.50;;;;;;5043502;28;20296;-54
2023/09/21 07:17:38;;;;;;;3.50;1.45;;;24.50;50.60;;;;;;5038507;28;20056;-54
2023/09/21 07:20:06;;;;;;;3.58;1.50;;;24.50;50.70;;;;;;5025111;28;20040;-55
2023/09/21 07:22:33;;;;;;;2.55;1.38;;;24.50;50.70;;;;;;5030459;28;20329;-54
2023/09/21 07:25:00;;;;;;;3.13;1.42;;;24.50;50.90;;;;;;5019193;28;20033;-54
2023/09/21 07:27:26;;;;;;;3.15;1.77;;;24.50;50.90;;;;;;5020280;28;20322;-55
2023/09/21 07:29:53;;;;;;;2.95;1.65;;;24.50;51.00;;;;;;5030533;28;20036;-57
2023/09/21 07:32:20;;;;;;;3.15;1.40;;;24.50;51.10;;;;;;5011178;28;20611;-51
2023/09/21 07:34:48;;;;;;;1.85;1.15;;;24.50;51.10;;;;;;5030736;28;20085;-47
2023/09/21 07:37:16;;;;;;;3.40;1.67;;;24.50;51.20;;;;;;5031201;28;20037;-46
2023/09/21 07:39:42;;;;;;;2.63;1.38;;;24.50;51.90;;;;;;5034230;28;20025;-56
2023/09/21 07:42:09;;;;;;;3.15;1.70;;;24.50;51.30;;;;;;5044292;28;20053;-53
2023/09/21 07:44:35;;;;;;;2.55;1.50;;;24.50;51.40;;;;;;5032175;28;20140;-50
2023/09/21 07:47:02;;;;;;;1.95;1.40;;;24.50;51.40;;;;;;5033564;28;20026;-53
2023/09/21 07:49:28;;;;;;;2.40;1.25;;;24.50;51.50;;;;;;5032311;28;20049;-54
2023/09/21 07:51:55;;;;;;;2.13;1.23;;;24.50;51.60;;;;;;5041870;28;20017;-52
2023/09/21 07:54:22;;;;;;;2.55;1.25;;;24.50;51.60;;;;;;5047966;28;20032;-54
2023/09/21 07:56:48;;;;;;;2.88;1.60;;;24.50;51.70;;;;;;5041872;28;20442;-53
2023/09/21 07:59:15;;;;;;;3.33;1.45;;;24.50;51.80;;;;;;5020745;28;20086;-50
2023/09/21 08:01:41;;;;;;;3.55;1.42;;;24.50;51.80;;;;;;5038783;28;20033;-53
2023/09/21 08:04:07;;;;;;;1.73;1.17;;;24.50;51.80;;;;;;5043798;28;20074;-53
2023/09/21 08:06:33;;;;;;;2.42;1.10;;;24.50;51.90;;;;;;5041616;28;20025;-52
2023/09/21 08:08:59;;;;;;;1.80;1.15;;;24.50;52.00;;;;;;5031818;28;20456;-50
2023/09/21 08:11:26;;;;;;;2.90;1.27;;;24.50;52.00;;;;;;5018448;28;20036;-50
2023/09/21 08:13:52;;;;;;;2.97;1.50;;;24.50;52.10;;;;;;5023284;28;20033;-47
2023/09/21 08:16:18;;;;;;;2.28;1.20;;;24.50;52.20;;;;;;5020337;28;20037;-51
2023/09/21 08:18:44;;;;;;;1.95;1.02;;;24.50;52.20;;;;;;5032056;28;20150;-51
2023/09/21 08:21:10;;;;;;;1.85;1.20;;;24.50;52.30;;;;;;5045704;28;20041;-51
2023/09/21 08:23:37;;;;;;;1.85;1.30;;;24.50;52.30;;;;;;5018775;28;21383;-55
2023/09/21 08:26:03;;;;;;;1.98;1.27;;;24.50;52.40;;;;;;5042037;28;20403;-50
2023/09/21 08:28:30;;;;;;;1.80;1.17;;;24.50;52.50;;;;;;5010616;28;20170;-50
2023/09/21 08:30:57;;;;;;;2.00;1.08;;;24.50;52.60;;;;;;5035093;28;20282;-49
2023/09/21 08:33:23;;;;;;;1.35;1.13;;;24.50;52.60;;;;;;5018788;28;20048;-50
2023/09/21 08:35:49;;;;;;;2.15;1.30;;;24.50;52.70;;;;;;5040453;28;20029;-53
2023/09/21 08:38:19;;;;;;;1.95;1.23;;;24.50;52.70;;;;;;5040339;28;20028;-48
2023/09/21 08:40:52;;;;;;;1.90;1.30;;;24.50;52.80;;;;;;5043216;28;20029;-50
2023/09/21 08:43:22;;;;;;;2.15;1.23;;;24.50;53.50;;;;;;5040264;28;20148;-56
2023/09/21 08:45:52;;;;;;;2.30;1.20;;;24.40;52.90;;;;;;5023288;28;20163;-45
2023/09/21 08:48:20;;;;;;;1.85;1.30;;;24.50;52.90;;;;;;5039514;28;20044;-44
2023/09/21 08:50:52;;;;;;;2.67;1.27;;;24.50;53.00;;;;;;5044860;28;21636;-49
2023/09/21 08:53:23;;;;;;;2.20;1.15;;;24.50;53.10;;;;;;5039113;28;20033;-51
2023/09/21 08:55:52;;;;;;;2.22;1.27;;;24.50;53.10;;;;;;5042011;28;20065;-53
2023/09/21 08:58:26;;;;;;;2.38;1.08;;;24.40;53.20;;;;;;5025962;28;20332;-51
2023/09/21 09:00:54;;;;;;;1.52;1.00;;;24.50;53.30;;;;;;5039822;28;20025;-51
2023/09/21 09:03:22;;;;;;;1.58;1.00;;;24.50;53.30;;;;;;5042274;28;20025;-53
2023/09/21 09:05:48;;;;;;;1.45;1.20;;;24.50;53.40;;;;;;5025519;28;20102;-54
2023/09/21 09:08:14;;;;;;;2.53;1.33;;;24.50;53.40;;;;;;5029309;28;20072;-53
2023/09/21 09:10:41;;;;;;;2.40;1.52;;;24.50;53.50;;;;;;5037224;28;20040;-49
2023/09/21 09:13:07;;;;;;;2.83;1.20;;;24.50;53.60;;;;;;5025232;28;20044;-52
2023/09/21 09:15:34;;;;;;;1.98;1.10;;;24.40;53.60;;;;;;5024405;28;20100;-49
2023/09/21 09:18:05;;;;;;;2.17;1.33;;;24.50;53.70;;;;;;5031184;28;20045;-48
2023/09/21 09:20:32;;;;;;;3.00;1.42;;;24.50;53.70;;;;;;5009682;28;20052;-53
2023/09/21 09:23:01;;;;;;;1.70;1.10;;;24.50;53.80;;;;;;5040580;28;20052;-56
2023/09/21 09:25:27;;;;;;;2.58;1.52;;;24.50;53.80;;;;;;5043617;28;20028;-55
2023/09/21 09:27:53;;;;;;;2.17;1.20;;;24.50;53.90;;;;;;5047560;28;20037;-53
2023/09/21 09:30:20;;;;;;;1.48;0.90;;;24.50;54.00;;;;;;5022328;28;20090;-50
2023/09/21 09:32:47;;;;;;;2.75;1.23;;;24.50;54.00;;;;;;5038310;28;20060;-54
2023/09/21 09:35:13;;;;;;;1.80;1.08;;;24.50;54.00;;;;;;5048836;28;20313;-56
2023/09/21 09:37:48;;;;;;;2.38;1.42;;;24.50;54.10;;;;;;5039815;28;20041;-50
2023/09/21 09:40:18;;;;;;;1.73;0.90;;;24.50;54.20;;;;;;5023380;28;20319;-52
2023/09/21 09:42:46;;;;;;;2.08;1.20;;;24.50;54.20;;;;;;5040163;28;20083;-52
2023/09/21 09:45:24;;;;;;;1.58;1.10;;;24.40;54.20;;;;;;5040254;28;20132;-51
2023/09/21 09:48:01;;;;;;;1.75;1.13;;;24.50;54.30;;;;;;5021079;28;20054;-54
2023/09/21 09:50:33;;;;;;;1.35;1.10;;;24.50;54.40;;;;;;5033422;28;20416;-52
2023/09/21 09:53:03;;;;;;;2.38;1.10;;;24.40;54.40;;;;;;5036277;28;20088;-49
2023/09/21 09:55:33;;;;;;;1.65;1.10;;;24.50;54.50;;;;;;5034456;28;20047;-53
2023/09/21 09:58:00;;;;;;;1.48;1.20;;;24.50;54.50;;;;;;5019852;28;20047;-49
2023/09/21 10:00:27;;;;;;;1.52;1.00;;;24.40;54.40;;;;;;5016549;28;20036;-56
2023/09/21 10:02:57;;;;;;;1.70;1.00;;;24.50;54.50;;;;;;5033871;28;20141;-56
2023/09/21 10:05:26;;;;;;;1.58;0.95;;;24.40;54.40;;;;;;5040284;28;20063;-48
2023/09/21 10:07:54;;;;;;;1.25;1.00;;;24.50;54.40;;;;;;5036167;28;20163;-53
2023/09/21 10:10:28;;;;;;;1.23;1.02;;;24.40;54.40;;;;;;5035397;28;20035;-49
2023/09/21 10:12:56;;;;;;;1.10;0.98;;;24.50;54.50;;;;;;5033619;28;20060;-49
2023/09/21 10:15:24;;;;;;;1.52;0.90;;;24.50;54.50;;;;;;5041397;28;20024;-54
2023/09/21 10:17:54;;;;;;;1.90;1.17;;;24.50;54.50;;;;;;4999011;28;20310;-48
2023/09/21 10:20:32;;;;;;;1.13;0.90;;;24.50;54.50;;;;;;5036918;28;20421;-54
2023/09/21 10:23:05;;;;;;;1.00;0.88;;;24.50;54.50;;;;;;5042790;28;20423;-53
2023/09/21 10:25:44;;;;;;;1.95;1.10;;;24.50;54.50;;;;;;5019850;28;20466;-55
2023/09/21 10:28:28;;;;;;;1.58;0.88;;;24.50;54.50;;;;;;5034071;28;20484;-54
2023/09/21 10:31:06;;;;;;;2.15;0.93;;;24.50;54.50;;;;;;5042400;28;20129;-50
2023/09/21 10:33:58;;;;;;;1.10;1.00;;;24.50;54.50;;;;;;5020619;28;20021;-52
2023/09/21 10:36:28;;;;;;;1.10;0.75;;;24.50;54.50;;;;;;5006642;28;20136;-52
2023/09/21 10:39:09;;;;;;;1.50;0.90;;;24.40;54.50;;;;;;5041159;28;20033;-53
2023/09/21 10:41:39;;;;;;;1.40;0.90;;;24.40;54.60;;;;;;5042784;28;20083;-53
2023/09/21 10:44:06;;;;;;;1.98;0.98;;;24.40;54.60;;;;;;5044941;28;20028;-52
2023/09/21 10:46:37;;;;;;;1.33;0.93;;;24.40;54.60;;;;;;5026993;28;20035;-50
2023/09/21 10:49:06;;;;;;;1.10;0.80;;;24.40;54.60;;;;;;5034093;28;20057;-53
2023/09/21 10:51:33;;;;;;;0.80;0.70;;;24.40;54.60;;;;;;5035557;28;20022;-54
2023/09/21 10:54:00;;;;;;;1.80;0.88;;;24.40;54.70;;;;;;5039249;28;20029;-54
2023/09/21 10:56:26;;;;;;;0.90;0.70;;;24.50;54.70;;;;;;5043138;28;20125;-54
2023/09/21 10:58:53;;;;;;;0.93;0.77;;;24.50;54.70;;;;;;5035449;28;20029;-53
2023/09/21 11:01:19;;;;;;;1.08;0.70;;;24.40;54.70;;;;;;5019851;28;20407;-52
2023/09/21 11:03:48;;;;;;;0.82;0.77;;;24.50;54.80;;;;;;5017697;28;20033;-52
2023/09/21 11:06:16;;;;;;;1.10;0.70;;;24.50;54.80;;;;;;5033438;28;20029;-55
2023/09/21 11:08:46;;;;;;;0.82;0.70;;;24.50;54.90;;;;;;5029116;28;20452;-51
2023/09/21 11:11:15;;;;;;;1.00;0.80;;;24.50;54.90;;;;;;5032785;28;20025;-56
2023/09/21 11:13:42;;;;;;;1.42;0.82;;;24.50;54.90;;;;;;5027690;28;20441;-52
2023/09/21 11:16:14;;;;;;;1.45;0.80;;;24.50;54.90;;;;;;5029829;28;20287;-54
2023/09/21 11:18:40;;;;;;;0.80;0.70;;;24.50;55.10;;;;;;5019890;28;20108;-54
2023/09/21 11:21:11;;;;;;;1.25;0.70;;;24.60;55.30;;;;;;5045518;28;20043;-57
2023/09/21 11:23:42;;;;;;;1.17;0.63;;;24.60;55.30;;;;;;5027562;28;20104;-55
2023/09/21 11:26:11;;;;;;;0.75;0.70;;;24.70;55.30;;;;;;5035444;28;20044;-56
2023/09/21 11:28:38;;;;;;;1.00;0.75;;;24.70;55.30;;;;;;5028021;28;20037;-56
2023/09/21 11:31:05;;;;;;;1.83;0.50;;;24.80;55.30;;;;;;5013974;28;20166;-54
2023/09/21 11:33:35;;;;;;;1.10;0.63;;;24.90;55.30;;;;;;5041063;28;20041;-53
2023/09/21 11:36:08;;;;;;;1.35;0.60;;;24.90;55.20;;;;;;5017299;28;20467;-53
2023/09/21 11:38:35;;;;;;;1.00;0.60;;;25.00;55.10;;;;;;5030765;28;20211;-49
2023/09/21 11:41:01;;;;;;;1.60;0.98;;;25.10;55.00;;;;;;5016660;28;20048;-57
2023/09/21 11:43:29;;;;;;;1.40;0.85;;;25.10;55.20;;;;;;5036315;28;20355;-52
2023/09/21 11:45:55;;;;;;;0.90;0.75;;;25.20;54.90;;;;;;5026394;28;20026;-55
2023/09/21 11:48:21;;;;;;;1.23;0.70;;;25.20;54.90;;;;;;5023507;28;20075;-50
2023/09/21 11:50:48;;;;;;;1.92;0.90;;;25.30;54.90;;;;;;5033092;28;20374;-55
2023/09/21 11:53:19;;;;;;;1.58;0.93;;;25.30;54.80;;;;;;5039890;28;20133;-54
2023/09/21 11:55:46;;;;;;;1.10;0.77;;;25.40;54.80;;;;;;5025313;28;20078;-55
2023/09/21 11:58:15;;;;;;;2.17;0.82;;;25.40;54.60;;;;;;5029043;28;20060;-53
2023/09/21 12:03:21;;;;;;;1.05;0.77;;;25.60;54.30;;;;;;5030158;28;20091;-55
2023/09/21 12:05:47;;;;;;;1.30;0.88;;;25.60;54.10;;;;;;5002892;28;20040;-55
2023/09/21 12:08:16;;;;;;;1.85;0.88;;;25.70;53.90;;;;;;5026231;28;20040;-56
2023/09/21 12:10:47;;;;;;;0.75;0.60;;;25.80;53.80;;;;;;5028536;28;20030;-55
2023/09/21 12:13:17;;;;;;;0.70;0.63;;;25.80;53.50;;;;;;5032947;28;20079;-53
2023/09/21 12:15:43;;;;;;;1.17;0.70;;;25.90;53.40;;;;;;5006902;28;20043;-50
2023/09/21 12:18:12;;;;;;;1.10;0.75;;;26.00;53.30;;;;;;5030152;28;20345;-52
2023/09/21 12:20:51;;;;;;;1.30;0.88;;;26.00;53.10;;;;;;5028097;28;20041;-55
2023/09/21 12:23:18;;;;;;;1.30;0.90;;;26.00;52.90;;;;;;5011783;28;20041;-53
2023/09/21 12:25:45;;;;;;;1.13;0.63;;;26.10;52.80;;;;;;5023214;28;20025;-47
2023/09/21 12:28:11;;;;;;;0.98;0.68;;;26.20;52.70;;;;;;5010884;28;20132;-57
2023/09/21 12:30:41;;;;;;;1.17;0.80;;;26.20;52.50;;;;;;5009666;28;20109;-51
2023/09/21 12:33:08;;;;;;;1.17;0.80;;;26.20;52.30;;;;;;5035399;28;20033;-55
2023/09/21 12:35:35;;;;;;;1.42;0.88;;;26.20;52.20;;;;;;5032812;28;20432;-52
2023/09/21 12:38:02;;;;;;;0.82;0.60;;;26.20;52.00;;;;;;5029859;28;20032;-53
2023/09/21 12:40:28;;;;;;;0.93;0.63;;;26.30;51.90;;;;;;5040412;28;20388;-50
2023/09/21 12:42:54;;;;;;;1.15;0.60;;;26.30;51.70;;;;;;5011187;28;20033;-51
2023/09/21 12:45:22;;;;;;;1.30;0.73;;;26.30;51.60;;;;;;5027861;28;20029;-53
2023/09/21 12:47:51;;;;;;;1.05;0.82;;;26.40;51.50;;;;;;5013063;28;20128;-55
2023/09/21 12:50:18;;;;;;;0.70;0.60;;;26.40;51.40;;;;;;5030495;28;20030;-54
2023/09/21 12:52:47;;;;;;;1.10;0.68;;;26.40;51.20;;;;;;5038992;28;20029;-52
2023/09/21 12:55:14;;;;;;;0.82;0.60;;;26.50;51.10;;;;;;5033023;28;20026;-52
2023/09/21 12:57:41;;;;;;;1.00;0.63;;;26.50;51.00;;;;;;5032160;28;20485;-55